createdAt,value
2017-11-08T00:00:57.792Z,5.70
2017-11-08T00:03:25.272Z,5.70
2017-11-08T00:05:53.553Z,5.80
2017-11-08T00:08:21.037Z,5.80
2017-11-08T00:10:49.342Z,5.90
2017-11-08T00:13:16.864Z,5.90
2017-11-08T00:15:46.178Z,5.90
2017-11-08T00:18:13.689Z,5.80
2017-11-08T00:20:41.185Z,5.80
2017-11-08T00:23:08.715Z,5.70
2017-11-08T00:25:36.997Z,5.80
2017-11-08T00:28:04.496Z,5.80
2017-11-08T00:30:32.009Z,5.80
2017-11-08T00:32:59.544Z,5.90
2017-11-08T00:35:27.035Z,5.90
2017-11-08T00:37:54.589Z,6.00
2017-11-08T00:40:22.103Z,5.90
2017-11-08T00:42:49.613Z,5.90
2017-11-08T00:45:17.856Z,6.00
2017-11-08T00:47:45.394Z,6.00
2017-11-08T00:50:12.903Z,6.00
2017-11-08T00:52:40.446Z,5.90
2017-11-08T00:55:07.960Z,6.00
2017-11-08T00:57:37.273Z,6.00
2017-11-08T01:00:07.536Z,6.00
2017-11-08T01:02:35.817Z,6.10
2017-11-08T01:05:04.090Z,6.10
2017-11-08T01:07:31.580Z,6.10
2017-11-08T01:09:59.140Z,6.10
2017-11-08T01:12:26.634Z,6.10
2017-11-08T01:14:54.120Z,6.00
2017-11-08T01:17:21.661Z,6.10
2017-11-08T01:19:49.944Z,6.00
2017-11-08T01:22:17.454Z,6.00
2017-11-08T01:24:45.725Z,5.90
2017-11-08T01:27:13.238Z,6.00
2017-11-08T01:29:40.764Z,6.00
2017-11-08T01:32:08.256Z,6.00
2017-11-08T01:34:35.785Z,6.10
2017-11-08T01:37:08.932Z,6.10
2017-11-08T01:39:40.273Z,6.20
2017-11-08T01:42:10.634Z,6.20
2017-11-08T01:44:44.024Z,6.20
2017-11-08T01:47:11.537Z,6.20
2017-11-08T01:49:39.024Z,6.10
2017-11-08T01:52:11.436Z,6.10
2017-11-08T01:54:39.707Z,6.20
2017-11-08T01:57:07.245Z,6.20
2017-11-08T01:59:35.144Z,6.30
2017-11-08T02:02:02.659Z,6.40
2017-11-08T02:04:30.171Z,6.40
2017-11-08T02:06:57.696Z,6.40
2017-11-08T02:09:25.945Z,6.40
2017-11-08T02:11:53.454Z,6.40
2017-11-08T02:14:21.002Z,6.40
2017-11-08T02:16:48.511Z,6.40
2017-11-08T02:19:16.817Z,6.40
2017-11-08T02:21:44.304Z,6.30
2017-11-08T02:24:11.813Z,6.30
2017-11-08T02:26:39.317Z,6.40
2017-11-08T02:29:06.805Z,6.30
2017-11-08T02:31:34.330Z,6.40
2017-11-08T02:34:05.510Z,6.30
2017-11-08T02:36:33.050Z,6.20
2017-11-08T02:39:00.527Z,6.20
2017-11-08T02:41:29.171Z,6.20
2017-11-08T02:43:56.720Z,6.20
2017-11-08T02:46:26.021Z,6.20
2017-11-08T02:48:54.280Z,6.40
2017-11-08T02:51:21.802Z,6.40
2017-11-08T02:53:54.277Z,6.40
2017-11-08T02:56:21.797Z,6.40
2017-11-08T02:58:49.318Z,6.40
2017-11-08T03:01:17.635Z,6.20
2017-11-08T03:03:45.908Z,6.20
2017-11-08T03:06:13.441Z,6.30
2017-11-08T03:08:40.928Z,6.30
2017-11-08T03:11:09.202Z,6.20
2017-11-08T03:13:36.720Z,6.30
2017-11-08T03:16:04.212Z,6.30
2017-11-08T03:18:31.748Z,6.20
2017-11-08T03:20:59.237Z,6.30
2017-11-08T03:23:26.762Z,6.30
2017-11-08T03:25:55.018Z,6.10
2017-11-08T03:28:22.506Z,6.10
2017-11-08T03:30:50.021Z,6.20
2017-11-08T03:33:17.519Z,6.20
2017-11-08T03:35:45.008Z,6.10
2017-11-08T03:38:12.522Z,6.10
2017-11-08T03:40:40.801Z,5.90
2017-11-08T03:43:09.059Z,5.90
2017-11-08T03:45:36.580Z,5.90
2017-11-08T03:48:04.069Z,5.90
2017-11-08T03:50:31.576Z,5.90
2017-11-08T03:52:59.093Z,5.90
2017-11-08T03:55:26.584Z,5.80
2017-11-08T03:57:54.072Z,5.90
2017-11-08T04:00:21.586Z,5.80
2017-11-08T04:02:49.836Z,5.80
2017-11-08T04:05:18.133Z,5.80
2017-11-08T04:07:45.616Z,5.80
2017-11-08T04:10:13.101Z,5.80
2017-11-08T04:12:41.377Z,5.80
2017-11-08T04:15:10.517Z,5.90
2017-11-08T04:17:38.005Z,5.90
2017-11-08T04:20:05.496Z,5.90
2017-11-08T04:22:33.014Z,5.90
2017-11-08T04:25:01.292Z,5.80
2017-11-08T04:27:28.812Z,5.80
2017-11-08T04:29:56.295Z,5.70
2017-11-08T04:32:23.820Z,5.60
2017-11-08T04:34:52.069Z,5.60
2017-11-08T04:37:19.557Z,5.60
2017-11-08T04:39:47.062Z,5.60
2017-11-08T04:42:14.549Z,5.60
2017-11-08T04:44:42.076Z,5.60
2017-11-08T04:47:09.568Z,5.50
2017-11-08T04:49:37.065Z,5.60
2017-11-08T04:52:04.575Z,5.50
2017-11-08T04:54:32.115Z,5.60
2017-11-08T04:56:59.596Z,5.60
2017-11-08T04:59:27.086Z,5.60
2017-11-08T05:01:54.596Z,5.60
2017-11-08T05:04:22.085Z,5.60
2017-11-08T05:06:49.601Z,5.70
2017-11-08T05:09:17.093Z,5.70
2017-11-08T05:11:45.372Z,5.60
2017-11-08T05:14:13.619Z,5.60
2017-11-08T05:16:41.111Z,5.60
2017-11-08T05:19:08.629Z,5.60
2017-11-08T05:21:36.116Z,5.60
2017-11-08T05:24:03.603Z,5.70
2017-11-08T05:26:31.128Z,5.70
2017-11-08T05:28:58.648Z,5.70
2017-11-08T05:31:26.142Z,5.80
2017-11-08T05:33:53.667Z,5.80
2017-11-08T05:36:21.157Z,5.80
2017-11-08T05:38:48.641Z,5.80
2017-11-08T05:41:16.177Z,5.80
2017-11-08T05:43:43.673Z,5.80
2017-11-08T05:46:11.167Z,5.80
2017-11-08T05:48:38.684Z,5.90
2017-11-08T05:51:06.179Z,5.90
2017-11-08T05:53:33.717Z,6.00
2017-11-08T05:56:01.600Z,6.00
2017-11-08T05:58:29.145Z,5.90
2017-11-08T06:00:56.661Z,5.90
2017-11-08T06:03:24.157Z,5.90
2017-11-08T06:05:51.665Z,5.90
2017-11-08T06:08:19.932Z,5.90
2017-11-08T06:10:48.190Z,6.00
2017-11-08T06:13:15.798Z,5.90
2017-11-08T06:15:43.276Z,5.90
2017-11-08T06:18:10.769Z,5.90
2017-11-08T06:20:38.323Z,5.90
2017-11-08T06:23:06.581Z,6.00
2017-11-08T06:25:34.132Z,6.00
2017-11-08T06:28:01.633Z,6.00
2017-11-08T06:30:29.149Z,6.00
2017-11-08T06:32:56.632Z,5.90
2017-11-08T06:35:24.165Z,5.90
2017-11-08T06:37:52.417Z,6.10
2017-11-08T06:40:19.910Z,6.10
2017-11-08T06:42:47.416Z,6.10
2017-11-08T06:45:14.933Z,6.10
2017-11-08T06:47:42.423Z,6.20
2017-11-08T06:50:09.952Z,6.20
2017-11-08T06:52:38.418Z,6.20
2017-11-08T06:55:05.940Z,6.30
2017-11-08T06:57:33.436Z,6.30
2017-11-08T07:00:00.946Z,6.30
2017-11-08T07:02:28.464Z,6.30
2017-11-08T07:04:55.981Z,6.30
2017-11-08T07:07:23.470Z,6.30
2017-11-08T07:09:51.012Z,6.40
2017-11-08T07:12:19.260Z,6.30
2017-11-08T07:14:46.739Z,6.30
2017-11-08T07:17:14.244Z,6.20
2017-11-08T07:19:41.733Z,6.20
2017-11-08T07:22:09.229Z,6.10
2017-11-08T07:24:36.734Z,6.10
2017-11-08T07:27:04.217Z,6.00
2017-11-08T07:29:32.493Z,6.20
2017-11-08T07:31:59.992Z,6.20
2017-11-08T07:34:27.472Z,6.10
2017-11-08T07:36:54.955Z,6.20
2017-11-08T07:39:22.476Z,6.10
2017-11-08T07:41:50.745Z,5.90
2017-11-08T07:44:18.227Z,5.90
2017-11-08T07:46:45.748Z,6.00
2017-11-08T07:49:13.236Z,6.10
2017-11-08T07:51:40.724Z,6.00
2017-11-08T07:54:12.241Z,6.00
2017-11-08T07:56:39.724Z,6.00
2017-11-08T07:59:07.221Z,6.00
2017-11-08T08:01:34.737Z,5.90
2017-11-08T08:04:02.248Z,5.90
2017-11-08T08:06:29.736Z,5.90
2017-11-08T08:08:57.236Z,6.00
2017-11-08T08:11:24.715Z,5.90
2017-11-08T08:13:59.533Z,6.00
2017-11-08T08:16:27.032Z,6.00
2017-11-08T08:18:55.294Z,5.90
2017-11-08T08:21:23.551Z,5.90
2017-11-08T08:23:51.036Z,6.00
2017-11-08T08:26:20.988Z,6.00
2017-11-08T08:28:48.498Z,6.00
2017-11-08T08:31:15.983Z,6.00
2017-11-08T08:33:43.464Z,6.10
2017-11-08T08:36:10.976Z,6.10
2017-11-08T08:38:38.470Z,6.10
2017-11-08T08:41:06.724Z,6.20
2017-11-08T08:43:34.229Z,6.20
2017-11-08T08:46:02.477Z,6.20
2017-11-08T08:48:29.959Z,6.10
2017-11-08T08:50:57.473Z,6.20
2017-11-08T08:53:24.954Z,6.20
2017-11-08T08:55:52.440Z,6.20
2017-11-08T08:58:19.941Z,6.20
2017-11-08T09:00:47.423Z,6.20
2017-11-08T09:03:14.909Z,6.20
2017-11-08T09:05:43.185Z,6.20
2017-11-08T09:08:10.668Z,6.20
2017-11-08T09:10:38.929Z,6.40
2017-11-08T09:13:06.448Z,6.40
2017-11-08T09:15:33.931Z,6.40
2017-11-08T09:18:01.424Z,6.30
2017-11-08T09:20:28.931Z,6.30
2017-11-08T09:22:57.195Z,6.20
2017-11-08T09:25:26.629Z,6.30
2017-11-08T09:27:54.141Z,6.30
2017-11-08T09:30:21.633Z,6.40
2017-11-08T09:32:49.120Z,6.40
2017-11-08T09:35:16.637Z,6.40
2017-11-08T09:37:49.789Z,6.40
2017-11-08T09:40:17.302Z,6.40
2017-11-08T09:42:47.378Z,6.50
2017-11-08T09:45:14.868Z,6.50
2017-11-08T09:47:42.380Z,6.60
2017-11-08T09:50:10.636Z,6.60
2017-11-08T09:52:44.844Z,6.60
2017-11-08T09:55:12.324Z,6.70
2017-11-08T09:57:39.814Z,6.70
2017-11-08T10:00:07.331Z,6.70
2017-11-08T10:02:34.820Z,6.80
2017-11-08T10:05:02.314Z,6.80
2017-11-08T10:07:29.840Z,6.70
2017-11-08T10:09:57.343Z,6.80
2017-11-08T10:12:24.833Z,6.90
2017-11-08T10:14:52.344Z,6.80
2017-11-08T10:17:19.832Z,6.90
2017-11-08T10:19:47.403Z,6.90
2017-11-08T10:22:14.873Z,7.00
2017-11-08T10:24:43.981Z,7.00
2017-11-08T10:27:11.469Z,6.80
2017-11-08T10:29:38.989Z,6.90
2017-11-08T10:32:07.252Z,6.80
2017-11-08T10:34:34.737Z,6.80
2017-11-08T10:37:03.108Z,6.80
2017-11-08T10:39:30.591Z,6.80
2017-11-08T10:41:58.123Z,6.90
2017-11-08T10:44:25.605Z,6.90
2017-11-08T10:46:53.861Z,6.80
2017-11-08T10:49:21.357Z,6.80
2017-11-08T10:51:48.883Z,6.90
2017-11-08T10:54:17.177Z,6.90
2017-11-08T10:56:44.661Z,6.80
2017-11-08T10:59:17.911Z,6.90
2017-11-08T11:01:46.161Z,6.90
2017-11-08T11:04:13.677Z,6.90
2017-11-08T11:06:41.953Z,6.90
2017-11-08T11:09:10.205Z,6.90
2017-11-08T11:11:37.698Z,6.90
2017-11-08T11:14:11.239Z,6.90
2017-11-08T11:16:39.494Z,6.90
2017-11-08T11:19:12.933Z,6.90
2017-11-08T11:21:41.191Z,6.80
2017-11-08T11:24:12.598Z,6.80
2017-11-08T11:26:41.915Z,6.80
2017-11-08T11:29:10.257Z,6.70
2017-11-08T11:31:37.786Z,6.70
2017-11-08T11:34:05.276Z,6.60
2017-11-08T11:36:32.767Z,6.70
2017-11-08T11:39:00.301Z,6.80
2017-11-08T11:41:27.790Z,6.70
2017-11-08T11:43:55.292Z,6.60
2017-11-08T11:46:22.807Z,6.60
2017-11-08T11:48:54.116Z,6.70
2017-11-08T11:51:25.445Z,6.70
2017-11-08T11:53:52.935Z,6.80
2017-11-08T11:56:20.422Z,6.80
2017-11-08T11:58:47.946Z,6.70
2017-11-08T12:01:15.437Z,6.60
2017-11-08T12:03:42.927Z,6.60
2017-11-08T12:06:10.446Z,6.70
2017-11-08T12:08:38.706Z,6.70
2017-11-08T12:11:06.197Z,6.70
2017-11-08T12:13:34.473Z,6.60
2017-11-08T12:16:01.961Z,6.60
2017-11-08T12:18:30.216Z,6.60
2017-11-08T12:20:57.746Z,6.50
2017-11-08T12:23:25.233Z,6.60
2017-11-08T12:25:52.722Z,6.70
2017-11-08T12:28:20.264Z,6.60
2017-11-08T12:30:47.754Z,6.60
2017-11-08T12:33:15.267Z,6.60
2017-11-08T12:35:47.470Z,6.60
2017-11-08T12:38:14.960Z,6.60
2017-11-08T12:40:42.465Z,6.50
2017-11-08T12:43:09.977Z,6.60
2017-11-08T12:45:41.181Z,6.60
2017-11-08T12:48:08.690Z,6.60
2017-11-08T12:50:36.310Z,6.60
2017-11-08T12:53:03.802Z,6.60
2017-11-08T12:55:31.306Z,6.50
2017-11-08T12:57:58.839Z,6.50
2017-11-08T13:00:26.335Z,6.50
2017-11-08T13:02:53.833Z,6.50
2017-11-08T13:08:24.265Z,6.50
2017-11-08T13:10:57.513Z,6.50
2017-11-08T13:13:25.772Z,6.40
2017-11-08T13:15:53.261Z,6.40
2017-11-08T13:18:21.536Z,6.60
2017-11-08T13:20:49.028Z,6.60
2017-11-08T13:23:17.292Z,6.40
2017-11-08T13:25:44.823Z,6.40
2017-11-08T13:28:12.326Z,6.50
2017-11-08T13:30:39.820Z,6.50
2017-11-08T13:33:08.145Z,6.50
2017-11-08T13:35:35.646Z,6.50
2017-11-08T13:38:03.150Z,6.50
2017-11-08T13:40:31.503Z,6.50
2017-11-08T13:42:59.050Z,6.50
2017-11-08T13:45:28.341Z,6.60
2017-11-08T13:47:55.869Z,6.60
2017-11-08T13:50:23.373Z,6.60
2017-11-08T13:52:50.879Z,6.50
2017-11-08T13:55:18.398Z,6.60
2017-11-08T13:57:45.910Z,6.70
2017-11-08T14:00:13.418Z,6.60
2017-11-08T14:02:40.954Z,6.50
2017-11-08T14:05:08.449Z,6.60
2017-11-08T14:07:35.946Z,6.50
2017-11-08T14:10:03.463Z,6.60
2017-11-08T14:12:30.961Z,6.60
2017-11-08T14:14:58.449Z,6.70
2017-11-08T14:17:25.965Z,6.60
2017-11-08T14:19:54.228Z,6.50
2017-11-08T14:22:21.725Z,6.50
2017-11-08T14:24:50.013Z,6.50
2017-11-08T14:27:18.277Z,6.50
2017-11-08T14:29:45.785Z,6.50
2017-11-08T14:32:14.061Z,6.60
2017-11-08T14:34:42.317Z,6.60
2017-11-08T14:37:09.809Z,6.50
2017-11-08T14:39:38.093Z,6.50
2017-11-08T14:42:11.364Z,6.50
2017-11-08T14:44:38.937Z,6.50
2017-11-08T14:47:07.402Z,6.60
2017-11-08T14:49:34.979Z,6.50
2017-11-08T14:52:06.458Z,6.60
2017-11-08T14:54:33.945Z,6.60
2017-11-08T14:57:01.444Z,6.50
2017-11-08T14:59:29.054Z,6.60
2017-11-08T15:01:56.550Z,6.70
2017-11-08T15:04:24.050Z,6.70
2017-11-08T15:06:51.579Z,6.70
2017-11-08T15:09:19.081Z,6.60
2017-11-08T15:11:46.574Z,6.60
2017-11-08T15:17:22.337Z,6.50
2017-11-08T15:19:49.863Z,6.50
2017-11-08T15:22:17.352Z,6.50
2017-11-08T15:24:44.845Z,6.60
2017-11-08T15:27:12.377Z,6.50
2017-11-08T15:29:40.635Z,6.50
2017-11-08T15:32:08.140Z,6.50
2017-11-08T15:34:36.443Z,6.50
2017-11-08T15:37:03.939Z,6.50
2017-11-08T15:39:31.445Z,6.50
2017-11-08T15:41:58.966Z,6.50
2017-11-08T15:44:26.465Z,6.50
2017-11-08T15:46:54.883Z,6.50
2017-11-08T15:49:22.409Z,6.60
2017-11-08T15:51:49.906Z,6.70
2017-11-08T15:54:17.406Z,6.60
2017-11-08T15:56:45.698Z,6.60
2017-11-08T15:59:13.204Z,6.60
2017-11-08T16:01:41.680Z,6.60
2017-11-08T16:04:12.026Z,6.60
2017-11-08T16:06:39.538Z,6.50
2017-11-08T16:09:09.478Z,6.60
2017-11-08T16:11:37.800Z,6.60
2017-11-08T16:14:06.064Z,6.50
2017-11-08T16:16:33.570Z,6.50
2017-11-08T16:19:03.021Z,6.60
2017-11-08T16:21:31.258Z,6.60
2017-11-08T16:23:59.517Z,6.60
2017-11-08T16:26:27.074Z,6.60
2017-11-08T16:28:54.570Z,6.70
2017-11-08T16:31:22.077Z,6.70
2017-11-08T16:33:49.631Z,6.60
2017-11-08T16:36:17.911Z,6.50
2017-11-08T16:38:46.177Z,6.70
2017-11-08T16:41:13.698Z,6.70
2017-11-08T16:43:41.201Z,6.80
2017-11-08T16:46:08.706Z,6.70
2017-11-08T16:48:37.001Z,6.70
2017-11-08T16:51:04.517Z,6.70
2017-11-08T16:53:32.047Z,6.60
2017-11-08T16:56:00.333Z,6.60
2017-11-08T16:58:28.592Z,6.70
2017-11-08T17:00:56.082Z,6.70
2017-11-08T17:03:23.599Z,6.70
2017-11-08T17:05:51.099Z,6.70
2017-11-08T17:08:18.609Z,6.70
2017-11-08T17:10:46.889Z,6.80
2017-11-08T17:13:15.152Z,6.80
2017-11-08T17:15:42.658Z,6.80
2017-11-08T17:18:10.967Z,6.80
2017-11-08T17:20:38.473Z,6.80
2017-11-08T17:23:05.970Z,6.80
2017-11-08T17:25:33.515Z,6.90
2017-11-08T17:28:01.006Z,6.90
2017-11-08T17:30:28.502Z,6.90
2017-11-08T17:32:56.815Z,6.80
2017-11-08T17:35:24.317Z,6.90
2017-11-08T17:37:51.813Z,6.90
2017-11-08T17:40:19.341Z,6.90
2017-11-08T17:42:46.860Z,6.80
2017-11-08T17:45:15.131Z,6.90
2017-11-08T17:47:42.649Z,6.90
2017-11-08T17:50:10.148Z,7.00
2017-11-08T17:52:37.650Z,7.10
2017-11-08T17:55:05.178Z,7.10
2017-11-08T17:57:32.674Z,7.00
2017-11-08T18:00:00.194Z,6.90
2017-11-08T18:02:27.738Z,7.00
2017-11-08T18:04:55.247Z,7.00
2017-11-08T18:07:22.752Z,7.00
2017-11-08T18:09:51.060Z,7.00
2017-11-08T18:12:18.575Z,7.00
2017-11-08T18:14:46.076Z,7.00
2017-11-08T18:17:13.601Z,7.00
2017-11-08T18:19:41.854Z,6.90
2017-11-08T18:22:10.116Z,6.90
2017-11-08T18:24:37.639Z,6.90
2017-11-08T18:27:05.127Z,6.90
2017-11-08T18:29:32.619Z,6.90
2017-11-08T18:32:00.147Z,6.90
2017-11-08T18:34:27.646Z,6.90
2017-11-08T18:36:55.136Z,7.00
2017-11-08T18:39:23.489Z,7.00
2017-11-08T18:41:51.758Z,7.00
2017-11-08T18:44:19.257Z,7.10
2017-11-08T18:46:46.793Z,7.10
2017-11-08T18:49:14.292Z,7.00
2017-11-08T18:51:42.549Z,7.00
2017-11-08T18:54:10.067Z,7.00
2017-11-08T18:56:37.563Z,7.00
2017-11-08T18:59:05.086Z,7.00
2017-11-08T19:01:33.411Z,7.20
2017-11-08T19:04:00.914Z,7.10
2017-11-08T19:06:28.411Z,7.10
2017-11-08T19:08:55.926Z,7.10
2017-11-08T19:11:23.417Z,7.00
2017-11-08T19:13:50.922Z,7.10
2017-11-08T19:16:18.441Z,7.10
2017-11-08T19:18:45.941Z,7.00
2017-11-08T19:21:13.433Z,7.00
2017-11-08T19:23:41.002Z,7.00
2017-11-08T19:26:08.506Z,7.00
2017-11-08T19:28:36.034Z,7.00
2017-11-08T19:31:03.809Z,7.00
2017-11-08T19:33:31.314Z,7.00
2017-11-08T19:35:59.574Z,7.10
2017-11-08T19:38:27.094Z,7.00
2017-11-08T19:40:54.592Z,7.00
2017-11-08T19:43:22.094Z,7.00
2017-11-08T19:45:49.653Z,7.00
2017-11-08T19:48:17.149Z,7.10
2017-11-08T19:50:45.418Z,7.00
2017-11-08T19:53:12.942Z,7.00
2017-11-08T19:55:40.440Z,7.10
2017-11-08T19:58:07.935Z,7.10
2017-11-08T20:00:35.471Z,7.00
2017-11-08T20:03:03.921Z,7.00
2017-11-08T20:05:32.181Z,7.10
2017-11-08T20:07:59.716Z,7.10
2017-11-08T20:10:27.201Z,7.10
2017-11-08T20:12:54.697Z,7.10
2017-11-08T20:15:22.218Z,7.10
2017-11-08T20:17:49.715Z,7.10
2017-11-08T20:20:17.198Z,7.00
2017-11-08T20:22:44.735Z,7.00
2017-11-08T20:25:12.242Z,7.00
2017-11-08T20:27:39.764Z,7.00
2017-11-08T20:30:07.298Z,7.00
2017-11-08T20:32:34.873Z,7.00
2017-11-08T20:35:02.411Z,7.10
2017-11-08T20:37:29.933Z,7.10
2017-11-08T20:39:58.212Z,7.00
2017-11-08T20:42:26.485Z,7.10
2017-11-08T20:44:54.046Z,7.10
2017-11-08T20:47:21.547Z,7.10
2017-11-08T20:49:49.554Z,7.10
2017-11-08T20:52:17.082Z,7.00
2017-11-08T20:54:44.582Z,7.00
2017-11-08T20:57:12.094Z,7.00
2017-11-08T20:59:39.606Z,7.00
2017-11-08T21:02:07.151Z,7.10
2017-11-08T21:04:34.721Z,7.00
2017-11-08T21:07:02.308Z,7.00
2017-11-08T21:09:29.806Z,7.00
2017-11-08T21:11:58.071Z,7.00
2017-11-08T21:14:25.620Z,7.00
2017-11-08T21:16:53.107Z,6.90
2017-11-08T21:19:20.593Z,6.90
2017-11-08T21:21:48.118Z,7.00
2017-11-08T21:24:15.614Z,6.90
2017-11-08T21:26:43.106Z,7.00
2017-11-08T21:29:10.629Z,7.00
2017-11-08T21:31:38.117Z,7.00
2017-11-08T21:34:05.616Z,7.00
2017-11-08T21:36:33.126Z,7.00
2017-11-08T21:39:00.620Z,7.00
2017-11-08T21:41:28.111Z,7.00
2017-11-08T21:43:55.628Z,6.90
2017-11-08T21:46:23.114Z,7.00
2017-11-08T21:48:51.197Z,7.00
2017-11-08T21:51:18.752Z,7.00
2017-11-08T21:53:46.237Z,7.00
2017-11-08T21:56:13.753Z,7.10
2017-11-08T21:58:41.266Z,7.10
2017-11-08T22:01:09.531Z,7.00
2017-11-08T22:03:37.114Z,7.00
2017-11-08T22:06:05.399Z,7.00
2017-11-08T22:08:33.676Z,7.00
2017-11-08T22:11:01.945Z,7.00
2017-11-08T22:13:29.461Z,7.00
2017-11-08T22:15:57.717Z,7.00
2017-11-08T22:18:25.212Z,7.00
2017-11-08T22:20:53.490Z,7.00
2017-11-08T22:23:20.986Z,7.00
2017-11-08T22:25:48.490Z,7.00
2017-11-08T22:28:16.001Z,7.00
2017-11-08T22:30:43.614Z,7.00
2017-11-08T22:33:11.131Z,7.00
2017-11-08T22:35:38.650Z,7.00
2017-11-08T22:38:06.197Z,6.90
2017-11-08T22:40:33.691Z,6.90
2017-11-08T22:43:01.204Z,6.90
2017-11-08T22:45:29.462Z,6.80
2017-11-08T22:47:56.954Z,6.80
2017-11-08T22:50:24.467Z,6.80
2017-11-08T22:52:52.715Z,6.90
2017-11-08T22:55:20.198Z,6.90
2017-11-08T22:57:47.726Z,6.90
2017-11-08T23:00:15.239Z,7.00
2017-11-08T23:02:42.730Z,6.90
2017-11-08T23:05:10.354Z,7.00
2017-11-08T23:07:37.965Z,7.00
2017-11-08T23:10:05.459Z,6.90
2017-11-08T23:12:33.741Z,7.00
2017-11-08T23:15:01.233Z,7.00
2017-11-08T23:17:28.729Z,7.00
2017-11-08T23:19:56.249Z,7.00
2017-11-08T23:22:23.738Z,7.00
2017-11-08T23:24:52.011Z,7.00
2017-11-08T23:27:20.322Z,7.00
2017-11-08T23:29:48.586Z,7.00
2017-11-08T23:32:16.141Z,7.00
2017-11-08T23:34:43.666Z,7.00
2017-11-08T23:37:11.162Z,7.00
2017-11-08T23:39:38.657Z,7.00
2017-11-08T23:42:06.181Z,7.00
2017-11-08T23:44:33.670Z,6.90
2017-11-08T23:47:01.217Z,7.00
2017-11-08T23:49:28.741Z,7.00
2017-11-08T23:52:02.753Z,7.00
2017-11-08T23:54:30.288Z,6.90
2017-11-08T23:56:57.807Z,6.90
2017-11-08T23:59:29.345Z,6.90
